Time;durP1;ratioP1;P1;durP2;ratioP2;P2;SDS_P1;SDS_P2;PMS_P1;PMS_P2;Temp;Humidity;BMP_temperature;BMP_pressure;BME280_temperature;BME280_humidity;BME280_pressure;Samples;Min_cycle;Max_cycle;Signal;HPM_P1;HPM_P2
2023/06/26 00:01:20;;;;;;;0.40;0.40;;;20.80;99.90;;;;;;5057987;28;20447;-68
2023/06/26 00:03:46;;;;;;;0.40;0.40;;;20.70;99.90;;;;;;5062675;28;20059;-69
2023/06/26 00:06:13;;;;;;;0.57;0.57;;;20.80;99.90;;;;;;5061293;28;20056;-67
2023/06/26 00:08:39;;;;;;;3.72;1.20;;;20.70;99.90;;;;;;5059354;28;20052;-68
2023/06/26 00:11:05;;;;;;;1.40;0.90;;;20.70;99.90;;;;;;5057228;28;20044;-68
2023/06/26 00:13:31;;;;;;;0.50;0.50;;;20.60;99.90;;;;;;5062642;28;20405;-68
2023/06/26 00:15:56;;;;;;;0.57;0.57;;;20.80;99.90;;;;;;5067142;28;20064;-68
2023/06/26 00:18:23;;;;;;;0.30;0.30;;;20.70;99.90;;;;;;5061517;28;20044;-68
2023/06/26 00:20:49;;;;;;;0.30;0.30;;;20.60;99.90;;;;;;5057554;28;20041;-68
2023/06/26 00:23:16;;;;;;;0.50;0.50;;;20.60;99.90;;;;;;5064330;28;20525;-68
2023/06/26 00:25:42;;;;;;;0.45;0.45;;;20.60;99.90;;;;;;5062660;28;20076;-68
2023/06/26 00:28:08;;;;;;;0.20;0.20;;;20.60;99.90;;;;;;5064057;28;20131;-68
2023/06/26 00:30:34;;;;;;;0.30;0.30;;;20.50;99.90;;;;;;5066496;28;20401;-68
2023/06/26 00:32:59;;;;;;;0.30;0.30;;;20.50;99.90;;;;;;5063971;28;20039;-68
2023/06/26 00:35:25;;;;;;;0.28;0.28;;;20.60;99.90;;;;;;5060810;28;20505;-68
2023/06/26 00:37:51;;;;;;;0.25;0.25;;;20.50;99.90;;;;;;5068145;28;20127;-68
2023/06/26 00:40:16;;;;;;;0.43;0.43;;;20.50;99.90;;;;;;5061959;28;20082;-68
2023/06/26 00:42:42;;;;;;;0.40;0.40;;;20.60;99.90;;;;;;5060150;28;20107;-68
2023/06/26 00:45:08;;;;;;;0.63;0.63;;;20.50;99.90;;;;;;5064959;28;20043;-68
2023/06/26 00:47:33;;;;;;;0.40;0.40;;;20.50;99.90;;;;;;5067462;28;20133;-68
2023/06/26 00:50:00;;;;;;;1.02;1.02;;;20.40;99.90;;;;;;5058390;28;20080;-68
2023/06/26 00:52:25;;;;;;;0.88;0.88;;;20.40;99.90;;;;;;5065092;28;20478;-68
2023/06/26 00:54:52;;;;;;;0.98;0.90;;;20.40;99.90;;;;;;5061111;28;20070;-68
2023/06/26 00:57:18;;;;;;;0.32;0.32;;;20.40;99.90;;;;;;5061406;28;20179;-68
2023/06/26 00:59:44;;;;;;;0.43;0.43;;;20.30;99.90;;;;;;5060516;28;20045;-68
2023/06/26 01:02:09;;;;;;;0.60;0.60;;;20.30;99.90;;;;;;5061811;28;20037;-68
2023/06/26 01:04:35;;;;;;;0.55;0.55;;;20.30;99.90;;;;;;5063126;28;20044;-68
2023/06/26 01:07:03;;;;;;;0.50;0.50;;;20.40;99.90;;;;;;5067424;28;20105;-68
2023/06/26 01:09:30;;;;;;;0.35;0.35;;;20.30;99.90;;;;;;5065894;28;20040;-68
2023/06/26 01:11:56;;;;;;;0.30;0.30;;;20.30;99.90;;;;;;5054886;28;20077;-68
2023/06/26 01:14:22;;;;;;;0.43;0.43;;;20.40;99.90;;;;;;5066399;28;20852;-68
2023/06/26 01:16:49;;;;;;;0.52;0.52;;;20.30;99.90;;;;;;5059642;28;20045;-68
2023/06/26 01:19:25;;;;;;;0.70;0.57;;;20.20;99.90;;;;;;5068645;28;20453;-68
2023/06/26 01:22:18;;;;;;;0.45;0.45;;;20.30;99.90;;;;;;5064316;28;20041;-68
2023/06/26 01:25:20;;;;;;;0.93;0.60;;;20.10;99.90;;;;;;5061373;28;20056;-68
2023/06/26 01:27:48;;;;;;;0.57;0.57;;;20.10;99.90;;;;;;5066626;28;20060;-68
2023/06/26 01:30:15;;;;;;;0.75;0.75;;;20.10;99.90;;;;;;5064208;28;20033;-68
2023/06/26 01:32:42;;;;;;;0.57;0.50;;;20.10;99.90;;;;;;5062373;28;20056;-68
2023/06/26 01:35:09;;;;;;;0.43;0.43;;;20.10;99.90;;;;;;5067244;28;20051;-68
2023/06/26 01:37:34;;;;;;;0.55;0.55;;;20.00;99.90;;;;;;5052869;28;20052;-68
2023/06/26 01:40:00;;;;;;;0.38;0.38;;;20.00;99.90;;;;;;5055454;28;20041;-68
2023/06/26 01:42:27;;;;;;;1.35;1.33;;;19.90;99.90;;;;;;5061442;28;20052;-68
2023/06/26 01:44:55;;;;;;;0.60;0.60;;;19.90;99.90;;;;;;5063148;28;20447;-68
2023/06/26 01:47:25;;;;;;;0.60;0.60;;;19.90;99.90;;;;;;5062249;28;20094;-68
2023/06/26 01:50:05;;;;;;;0.30;0.30;;;19.90;99.90;;;;;;5061967;28;20417;-68
2023/06/26 01:52:58;;;;;;;0.45;0.45;;;19.90;99.90;;;;;;5059369;28;20040;-68
2023/06/26 01:55:43;;;;;;;0.40;0.40;;;20.00;99.90;;;;;;5062418;28;20049;-68
2023/06/26 01:58:09;;;;;;;0.30;0.30;;;19.90;99.90;;;;;;5062502;28;20124;-68
2023/06/26 02:00:36;;;;;;;0.50;0.50;;;19.90;99.90;;;;;;5057666;28;20041;-68
2023/06/26 02:03:03;;;;;;;0.77;0.53;;;19.80;99.90;;;;;;5059761;28;20136;-68
2023/06/26 02:05:30;;;;;;;0.55;0.55;;;19.70;99.90;;;;;;5061991;28;20048;-69
2023/06/26 02:07:56;;;;;;;0.40;0.40;;;19.80;99.90;;;;;;5062951;28;20063;-68
2023/06/26 02:10:22;;;;;;;0.52;0.52;;;19.70;99.90;;;;;;5060190;28;20628;-68
2023/06/26 02:12:47;;;;;;;0.47;0.47;;;19.70;99.90;;;;;;5063398;28;20094;-68
2023/06/26 02:15:13;;;;;;;0.30;0.30;;;19.60;99.90;;;;;;5062180;28;20044;-68
2023/06/26 02:17:39;;;;;;;1.33;1.25;;;19.90;99.90;;;;;;5062705;28;20080;-68
2023/06/26 02:20:05;;;;;;;0.80;0.80;;;19.50;99.90;;;;;;5062782;28;20040;-68
2023/06/26 02:22:31;;;;;;;0.80;0.80;;;19.60;99.90;;;;;;5064033;28;20075;-68
2023/06/26 02:24:57;;;;;;;0.63;0.52;;;19.40;99.90;;;;;;5067439;28;20036;-68
2023/06/26 02:27:22;;;;;;;0.30;0.30;;;19.30;99.90;;;;;;5066778;28;20048;-68
2023/06/26 02:29:48;;;;;;;0.30;0.30;;;19.30;99.90;;;;;;5064080;28;20123;-68
2023/06/26 02:32:14;;;;;;;0.77;0.60;;;19.30;99.90;;;;;;5063729;28;20098;-68
2023/06/26 02:34:39;;;;;;;0.68;0.68;;;19.20;99.90;;;;;;5064467;28;20054;-68
2023/06/26 02:37:07;;;;;;;0.52;0.52;;;19.30;99.90;;;;;;5066622;28;20044;-68
2023/06/26 02:39:34;;;;;;;0.57;0.57;;;19.30;99.90;;;;;;5059733;28;20056;-68
2023/06/26 02:42:00;;;;;;;0.50;0.50;;;19.30;99.90;;;;;;5065928;28;20149;-68
2023/06/26 02:44:25;;;;;;;0.65;0.65;;;19.30;99.90;;;;;;5060205;28;20486;-68
2023/06/26 02:46:52;;;;;;;0.60;0.60;;;19.10;99.90;;;;;;5066868;28;20163;-68
2023/06/26 02:49:18;;;;;;;0.50;0.50;;;19.20;99.90;;;;;;5058168;28;20377;-68
2023/06/26 02:51:44;;;;;;;0.68;0.68;;;19.10;99.90;;;;;;5057796;28;20561;-68
2023/06/26 02:54:10;;;;;;;0.63;0.63;;;19.20;99.90;;;;;;5059778;28;20125;-68
2023/06/26 02:56:35;;;;;;;0.50;0.50;;;19.20;99.90;;;;;;5057994;28;20124;-68
2023/06/26 02:59:01;;;;;;;0.82;0.82;;;19.20;99.90;;;;;;5057721;28;20106;-69
2023/06/26 03:01:27;;;;;;;0.40;0.40;;;19.10;99.90;;;;;;5060256;28;20071;-68
2023/06/26 03:03:52;;;;;;;0.88;0.88;;;19.00;99.90;;;;;;5063061;28;20076;-68
2023/06/26 03:06:18;;;;;;;1.33;0.73;;;19.10;99.90;;;;;;5059249;28;20135;-68
2023/06/26 03:08:45;;;;;;;0.85;0.85;;;19.20;99.90;;;;;;5057538;28;20559;-69
2023/06/26 03:11:10;;;;;;;0.43;0.43;;;19.10;99.90;;;;;;5059023;28;20074;-69
2023/06/26 03:13:37;;;;;;;0.98;0.98;;;19.30;99.90;;;;;;5054311;28;20052;-69
2023/06/26 03:16:03;;;;;;;0.68;0.68;;;19.20;99.90;;;;;;5059238;28;20052;-69
2023/06/26 03:18:29;;;;;;;1.25;1.15;;;19.40;99.90;;;;;;5061271;28;20071;-68
2023/06/26 03:20:55;;;;;;;0.70;0.70;;;19.50;99.90;;;;;;5064061;28;20486;-68
2023/06/26 03:23:22;;;;;;;0.70;0.70;;;19.40;99.90;;;;;;5060682;28;20717;-69
2023/06/26 03:25:48;;;;;;;0.70;0.70;;;19.50;99.90;;;;;;5057714;28;20067;-68
2023/06/26 03:28:14;;;;;;;0.75;0.75;;;19.50;99.90;;;;;;5065247;28;20070;-68
2023/06/26 03:30:39;;;;;;;0.68;0.68;;;19.50;99.90;;;;;;5061137;28;20045;-69
2023/06/26 03:33:05;;;;;;;0.40;0.40;;;19.80;99.90;;;;;;5059707;28;20094;-69
2023/06/26 03:35:31;;;;;;;1.30;0.75;;;19.90;99.90;;;;;;5065464;28;20104;-69
2023/06/26 03:37:57;;;;;;;1.23;1.17;;;19.80;99.90;;;;;;5055661;28;20041;-68
2023/06/26 03:40:23;;;;;;;0.70;0.70;;;19.90;99.90;;;;;;5062514;28;20054;-69
2023/06/26 03:42:49;;;;;;;1.30;1.20;;;19.80;99.90;;;;;;5061661;28;20421;-69
2023/06/26 03:45:14;;;;;;;0.57;0.57;;;20.00;99.90;;;;;;5062812;28;20136;-68
2023/06/26 03:47:40;;;;;;;1.83;1.73;;;19.90;99.90;;;;;;5072673;28;20048;-68
2023/06/26 03:50:06;;;;;;;3.42;1.00;;;20.10;99.90;;;;;;5061087;28;20616;-68
2023/06/26 03:52:32;;;;;;;1.20;1.10;;;20.00;99.90;;;;;;5069192;28;20493;-68
2023/06/26 03:54:58;;;;;;;1.52;0.85;;;20.20;99.90;;;;;;5065918;28;20074;-69
2023/06/26 03:57:24;;;;;;;1.35;1.25;;;20.10;99.90;;;;;;5065332;28;20037;-68
2023/06/26 03:59:52;;;;;;;0.80;0.80;;;20.30;99.90;;;;;;5064904;28;20037;-69
2023/06/26 04:02:18;;;;;;;;;;;20.20;99.90;;;;;;5070914;28;20040;-69
2023/06/26 04:04:44;;;;;;;1.20;1.20;;;20.40;99.90;;;;;;5065649;28;19983;-69
2023/06/26 04:07:10;;;;;;;0.73;0.73;;;20.20;99.90;;;;;;5064296;28;20052;-68
2023/06/26 04:09:36;;;;;;;0.75;0.75;;;20.20;99.90;;;;;;5076583;28;20129;-68
2023/06/26 04:12:02;;;;;;;1.33;1.23;;;20.30;99.90;;;;;;5063064;28;20080;-68
2023/06/26 04:14:28;;;;;;;0.85;0.85;;;20.40;99.90;;;;;;5056993;28;20053;-68
2023/06/26 04:16:54;;;;;;;1.25;1.15;;;20.40;99.90;;;;;;5059371;28;20494;-69
2023/06/26 04:19:19;;;;;;;1.38;0.82;;;20.50;99.90;;;;;;5060649;28;20040;-69
2023/06/26 04:21:45;;;;;;;0.88;0.88;;;20.50;99.90;;;;;;5072274;28;20045;-69
2023/06/26 04:24:11;;;;;;;1.05;1.05;;;20.60;99.90;;;;;;5059893;28;20041;-68
2023/06/26 04:26:40;;;;;;;0.88;0.88;;;20.60;99.90;;;;;;5061548;28;20776;-69
2023/06/26 04:29:07;;;;;;;1.55;1.50;;;20.60;99.90;;;;;;5066856;28;20101;-69
2023/06/26 04:31:33;;;;;;;1.67;1.33;;;20.60;99.90;;;;;;5064643;28;20041;-68
2023/06/26 04:33:59;;;;;;;0.70;0.70;;;20.70;99.90;;;;;;5062384;28;20040;-68
2023/06/26 04:36:28;;;;;;;0.93;0.93;;;20.80;99.90;;;;;;5061845;28;20055;-69
2023/06/26 04:38:55;;;;;;;0.50;0.50;;;20.70;99.90;;;;;;5064998;28;20094;-68
2023/06/26 04:41:21;;;;;;;0.57;0.57;;;20.70;99.90;;;;;;5062614;28;20052;-68
2023/06/26 04:43:46;;;;;;;0.45;0.45;;;20.80;99.90;;;;;;5065424;28;20659;-69
2023/06/26 04:46:12;;;;;;;1.27;1.27;;;20.90;99.90;;;;;;5059923;28;20067;-69
2023/06/26 04:48:38;;;;;;;0.63;0.63;;;20.80;99.90;;;;;;5064955;28;20044;-68
2023/06/26 04:51:04;;;;;;;1.35;1.27;;;20.90;99.90;;;;;;5053897;28;20045;-68
2023/06/26 04:53:29;;;;;;;1.50;1.17;;;20.80;99.90;;;;;;5060784;28;20052;-69
2023/06/26 04:55:55;;;;;;;1.20;1.17;;;20.80;99.90;;;;;;5060618;28;20179;-69
2023/06/26 04:58:21;;;;;;;2.35;2.17;;;21.00;99.90;;;;;;5059440;28;20131;-69
2023/06/26 05:00:47;;;;;;;4.07;2.00;;;20.90;99.90;;;;;;5062760;28;20168;-69
2023/06/26 05:03:14;;;;;;;0.93;0.93;;;20.90;99.90;;;;;;5060060;28;20053;-68
2023/06/26 05:05:40;;;;;;;1.13;1.02;;;21.00;99.90;;;;;;5061897;28;20051;-68
2023/06/26 05:08:26;;;;;;;2.83;2.63;;;21.00;99.90;;;;;;5056059;28;20048;-69
2023/06/26 05:10:53;;;;;;;1.17;1.17;;;21.00;99.90;;;;;;5064080;28;20082;-68
2023/06/26 05:13:19;;;;;;;0.97;0.97;;;21.20;99.90;;;;;;5063548;28;20452;-68
2023/06/26 05:15:46;;;;;;;2.45;2.13;;;21.30;99.90;;;;;;5058810;28;20052;-68
2023/06/26 05:18:12;;;;;;;1.30;1.30;;;21.20;99.90;;;;;;5062463;28;20747;-68
2023/06/26 05:20:37;;;;;;;1.20;1.20;;;21.50;99.90;;;;;;5061131;28;20040;-69
2023/06/26 05:23:03;;;;;;;5.10;1.75;;;21.40;99.90;;;;;;5062927;28;20059;-68
2023/06/26 05:25:30;;;;;;;0.50;0.50;;;21.50;99.90;;;;;;5059477;28;20427;-69
2023/06/26 05:27:57;;;;;;;3.00;2.20;;;21.60;99.90;;;;;;5062064;28;20029;-69
2023/06/26 05:30:27;;;;;;;1.42;1.38;;;21.70;99.90;;;;;;5065130;28;20115;-69
2023/06/26 05:32:54;;;;;;;1.30;1.30;;;21.70;99.90;;;;;;5060963;28;20041;-70
2023/06/26 05:35:23;;;;;;;1.85;1.23;;;21.70;99.90;;;;;;5060226;28;20060;-68
2023/06/26 05:37:50;;;;;;;1.35;1.25;;;21.80;99.90;;;;;;5063273;28;20082;-69
2023/06/26 05:40:17;;;;;;;1.27;1.27;;;21.90;99.90;;;;;;5066203;28;20083;-69
2023/06/26 05:42:44;;;;;;;1.48;1.38;;;21.80;99.90;;;;;;5064120;28;20298;-69
2023/06/26 05:45:10;;;;;;;1.88;1.20;;;21.70;99.90;;;;;;5063604;28;20040;-68
2023/06/26 05:47:36;;;;;;;1.15;1.15;;;21.70;99.90;;;;;;5056352;28;20058;-68
2023/06/26 05:50:03;;;;;;;1.55;1.40;;;21.90;99.90;;;;;;5063459;28;20052;-68
2023/06/26 05:52:29;;;;;;;0.67;0.67;;;21.70;99.90;;;;;;5062036;28;20123;-68
2023/06/26 05:54:58;;;;;;;6.30;1.38;;;21.70;99.90;;;;;;5060238;28;20083;-69
2023/06/26 05:57:25;;;;;;;0.98;0.98;;;22.00;99.90;;;;;;5045675;28;20104;-69
2023/06/26 05:59:51;;;;;;;0.77;0.75;;;21.90;99.90;;;;;;5059907;28;20489;-69
2023/06/26 06:02:17;;;;;;;1.75;1.65;;;21.90;99.90;;;;;;5063353;28;20059;-69
2023/06/26 06:04:42;;;;;;;4.03;1.33;;;21.90;99.90;;;;;;5057906;28;20393;-69
2023/06/26 06:07:08;;;;;;;1.48;1.38;;;21.90;99.90;;;;;;5062489;28;20083;-68
2023/06/26 06:09:34;;;;;;;0.50;0.50;;;22.10;99.90;;;;;;5058699;28;20055;-69
2023/06/26 06:12:01;;;;;;;1.00;1.00;;;21.90;99.90;;;;;;5060132;28;20052;-69
2023/06/26 06:14:28;;;;;;;3.72;2.08;;;21.90;99.90;;;;;;5063596;28;20070;-68
2023/06/26 06:16:53;;;;;;;0.90;0.90;;;21.90;99.90;;;;;;5062961;28;20466;-69
2023/06/26 06:19:19;;;;;;;1.58;1.10;;;21.80;99.90;;;;;;5062473;28;20047;-68
2023/06/26 06:21:45;;;;;;;0.77;0.77;;;21.80;99.90;;;;;;5060078;28;20041;-68
2023/06/26 06:24:10;;;;;;;1.90;1.20;;;21.60;99.90;;;;;;5062668;28;20378;-68
2023/06/26 06:26:36;;;;;;;1.55;1.13;;;21.70;99.90;;;;;;5062770;28;20094;-68
2023/06/26 06:29:03;;;;;;;0.93;0.80;;;21.70;99.90;;;;;;5059366;28;20048;-69
2023/06/26 06:31:30;;;;;;;0.93;0.93;;;21.50;99.90;;;;;;5059168;28;20041;-68
2023/06/26 06:33:56;;;;;;;2.10;1.38;;;21.70;99.90;;;;;;5061239;28;20585;-68
2023/06/26 06:36:21;;;;;;;1.27;0.85;;;21.60;99.90;;;;;;5061705;28;20051;-68
2023/06/26 06:38:47;;;;;;;1.85;1.75;;;21.70;99.90;;;;;;5060772;28;20045;-68
2023/06/26 06:41:13;;;;;;;2.40;1.67;;;21.80;99.90;;;;;;5060512;28;20102;-68
2023/06/26 06:43:39;;;;;;;0.60;0.60;;;21.90;99.90;;;;;;5063960;28;20110;-68
2023/06/26 06:46:05;;;;;;;1.02;0.80;;;22.00;99.90;;;;;;5062517;28;20074;-69
2023/06/26 06:48:31;;;;;;;0.50;0.50;;;22.30;99.90;;;;;;5060065;28;20103;-69
2023/06/26 06:50:57;;;;;;;0.60;0.60;;;22.10;99.90;;;;;;5060404;28;20051;-69
2023/06/26 06:53:23;;;;;;;0.98;0.98;;;22.20;99.90;;;;;;5060126;28;20048;-68
2023/06/26 06:55:52;;;;;;;0.40;0.40;;;22.30;99.90;;;;;;5058422;28;20409;-68
2023/06/26 06:58:21;;;;;;;0.63;0.40;;;22.30;99.90;;;;;;5061196;28;20040;-68
2023/06/26 07:00:46;;;;;;;0.60;0.60;;;22.30;99.90;;;;;;5065064;28;20052;-69
2023/06/26 07:03:15;;;;;;;0.60;0.60;;;22.50;99.90;;;;;;5039381;28;20079;-68
2023/06/26 07:05:42;;;;;;;0.40;0.40;;;22.60;99.90;;;;;;5046222;28;20045;-68
2023/06/26 07:08:08;;;;;;;0.57;0.57;;;22.60;99.90;;;;;;5059533;28;20613;-69
2023/06/26 07:10:34;;;;;;;0.68;0.68;;;22.80;99.90;;;;;;5063023;28;20053;-69
2023/06/26 07:12:59;;;;;;;2.15;0.93;;;23.00;99.90;;;;;;5069277;28;20058;-69
2023/06/26 07:15:25;;;;;;;0.88;0.88;;;23.30;99.90;;;;;;5055007;28;20037;-68
2023/06/26 07:17:51;;;;;;;0.30;0.30;;;23.60;99.90;;;;;;5065279;28;20051;-69
2023/06/26 07:20:17;;;;;;;1.15;1.05;;;23.60;99.90;;;;;;5064707;28;20389;-69
2023/06/26 07:22:44;;;;;;;1.30;1.20;;;23.80;99.90;;;;;;5070289;28;20131;-69
2023/06/26 07:25:10;;;;;;;0.90;0.90;;;24.00;99.90;;;;;;5068789;28;20060;-69
2023/06/26 07:27:40;;;;;;;1.15;1.10;;;24.10;99.90;;;;;;5061644;28;20035;-69
2023/06/26 07:30:08;;;;;;;0.35;0.35;;;24.30;99.90;;;;;;5065854;28;20036;-68
2023/06/26 07:32:35;;;;;;;0.60;0.60;;;24.50;99.90;;;;;;5060305;28;20490;-68
2023/06/26 07:35:00;;;;;;;0.75;0.75;;;24.90;99.90;;;;;;5066047;28;20052;-68
2023/06/26 07:37:26;;;;;;;0.40;0.40;;;25.00;99.90;;;;;;5063398;28;20063;-68
2023/06/26 07:39:52;;;;;;;0.65;0.65;;;25.20;99.90;;;;;;5063843;28;20131;-68
2023/06/26 07:42:17;;;;;;;0.77;0.77;;;25.40;99.90;;;;;;5063921;28;20045;-68
2023/06/26 07:44:43;;;;;;;0.32;0.32;;;25.50;99.90;;;;;;5064725;28;20087;-69
2023/06/26 07:47:09;;;;;;;0.68;0.68;;;25.80;99.90;;;;;;5066783;28;20401;-69
2023/06/26 07:49:35;;;;;;;0.47;0.47;;;25.90;99.90;;;;;;5063629;28;20039;-68
2023/06/26 07:52:01;;;;;;;0.77;0.77;;;26.20;99.90;;;;;;5065619;28;20052;-69
2023/06/26 07:54:27;;;;;;;3.00;1.60;;;26.40;99.90;;;;;;5065644;28;20048;-68
2023/06/26 07:56:57;;;;;;;4.18;0.95;;;26.60;99.90;;;;;;5065144;28;20437;-69
2023/06/26 07:59:24;;;;;;;0.40;0.40;;;26.90;99.90;;;;;;5063915;28;20041;-69
2023/06/26 08:01:53;;;;;;;0.50;0.50;;;27.20;99.90;;;;;;5063856;28;20053;-69
2023/06/26 08:04:21;;;;;;;2.22;1.23;;;27.30;99.90;;;;;;5069495;28;20045;-69
2023/06/26 08:06:55;;;;;;;0.35;0.35;;;27.50;99.90;;;;;;5072304;28;20486;-69
2023/06/26 08:09:23;;;;;;;0.30;0.30;;;27.80;99.90;;;;;;5058539;28;20052;-69
2023/06/26 08:11:49;;;;;;;0.40;0.40;;;27.80;99.90;;;;;;5060345;28;20044;-69
2023/06/26 08:14:16;;;;;;;1.13;1.02;;;27.80;99.90;;;;;;5063751;28;20060;-69
2023/06/26 08:16:45;;;;;;;1.23;1.13;;;27.90;99.90;;;;;;5067160;28;20094;-69
2023/06/26 08:19:15;;;;;;;0.40;0.40;;;27.90;99.90;;;;;;5058671;28;20048;-69
2023/06/26 08:21:41;;;;;;;0.50;0.50;;;27.90;99.90;;;;;;5064609;28;20524;-69
2023/06/26 08:24:13;;;;;;;1.00;0.88;;;28.00;99.90;;;;;;5065266;28;20060;-69
2023/06/26 08:26:39;;;;;;;0.63;0.63;;;28.20;99.90;;;;;;5066591;28;20048;-69
2023/06/26 08:29:08;;;;;;;0.50;0.50;;;28.20;99.90;;;;;;5064211;28;20045;-70
2023/06/26 08:31:36;;;;;;;0.65;0.65;;;28.30;99.90;;;;;;5065000;28;20049;-69
2023/06/26 08:34:03;;;;;;;0.55;0.55;;;28.50;99.90;;;;;;5060536;28;20094;-69
2023/06/26 08:36:29;;;;;;;0.30;0.30;;;28.50;99.90;;;;;;5060827;28;20569;-69
2023/06/26 08:38:55;;;;;;;0.20;0.20;;;28.60;99.90;;;;;;5058902;28;20089;-69
2023/06/26 08:41:20;;;;;;;0.45;0.45;;;28.60;99.90;;;;;;5060233;28;20973;-69
2023/06/26 08:43:47;;;;;;;0.45;0.45;;;28.50;99.90;;;;;;5060034;28;20040;-69
2023/06/26 08:46:14;;;;;;;0.30;0.30;;;28.60;99.90;;;;;;5063466;28;20040;-69
2023/06/26 08:48:44;;;;;;;1.33;1.25;;;28.70;99.90;;;;;;5062933;28;20049;-69
2023/06/26 08:51:14;;;;;;;0.30;0.30;;;28.60;99.90;;;;;;5064466;28;20493;-69
2023/06/26 08:53:59;;;;;;;0.30;0.30;;;28.50;99.90;;;;;;5068152;28;20051;-69
2023/06/26 08:56:32;;;;;;;0.30;0.30;;;28.40;99.90;;;;;;5054738;28;20066;-69
2023/06/26 08:58:59;;;;;;;0.40;0.40;;;28.70;99.90;;;;;;5064188;28;20489;-69
2023/06/26 09:01:25;;;;;;;0.70;0.70;;;29.00;99.90;;;;;;5066383;28;20036;-69
2023/06/26 09:03:52;;;;;;;0.82;0.82;;;29.10;99.90;;;;;;5063451;28;20556;-69
2023/06/26 09:06:18;;;;;;;0.40;0.40;;;29.00;99.90;;;;;;5067202;28;20131;-69
2023/06/26 09:08:46;;;;;;;0.43;0.43;;;28.70;99.90;;;;;;5059168;28;20060;-70
2023/06/26 09:11:11;;;;;;;0.30;0.30;;;28.70;99.90;;;;;;5063430;28;20048;-69
2023/06/26 09:13:37;;;;;;;0.30;0.30;;;28.70;99.90;;;;;;5060964;28;20505;-70
2023/06/26 09:16:07;;;;;;;0.63;0.63;;;28.50;99.90;;;;;;5069894;28;20086;-69
2023/06/26 09:18:34;;;;;;;2.25;0.95;;;28.60;99.90;;;;;;5066598;28;20055;-69
2023/06/26 09:20:59;;;;;;;0.40;0.40;;;28.80;99.90;;;;;;5064514;28;20051;-69
2023/06/26 09:23:25;;;;;;;0.73;0.73;;;28.70;99.90;;;;;;5062794;28;20435;-69
2023/06/26 09:25:51;;;;;;;0.40;0.40;;;28.40;99.90;;;;;;5064384;28;20553;-69
2023/06/26 09:28:18;;;;;;;0.60;0.60;;;28.30;99.90;;;;;;5062284;28;20123;-70
2023/06/26 09:30:45;;;;;;;0.38;0.38;;;28.20;99.90;;;;;;5059966;28;20123;-69
2023/06/26 09:33:13;;;;;;;0.50;0.50;;;28.50;99.90;;;;;;5066173;28;20073;-69
2023/06/26 09:35:39;;;;;;;0.40;0.40;;;28.70;99.90;;;;;;5062386;28;20623;-69
2023/06/26 09:38:05;;;;;;;0.60;0.60;;;28.80;99.90;;;;;;5064285;28;20036;-69
2023/06/26 09:40:34;;;;;;;1.33;1.10;;;28.80;99.90;;;;;;5064315;28;20781;-69
2023/06/26 09:43:04;;;;;;;0.30;0.30;;;28.50;99.90;;;;;;5046911;28;20090;-69
2023/06/26 09:45:37;;;;;;;0.40;0.40;;;28.30;99.90;;;;;;5060956;28;20052;-69
2023/06/26 09:48:04;;;;;;;1.05;0.95;;;28.00;99.90;;;;;;5060873;28;20040;-70
2023/06/26 09:50:33;;;;;;;2.10;1.02;;;28.00;99.90;;;;;;5063425;28;20043;-69
2023/06/26 09:53:11;;;;;;;0.80;0.80;;;28.00;99.90;;;;;;5062297;28;20083;-70
2023/06/26 09:55:37;;;;;;;0.82;0.82;;;27.70;99.90;;;;;;5064318;28;20052;-69
2023/06/26 09:58:03;;;;;;;0.30;0.30;;;27.40;99.90;;;;;;5060553;28;20041;-69
2023/06/26 10:00:31;;;;;;;0.50;0.50;;;27.30;99.90;;;;;;5067166;28;20040;-69
2023/06/26 10:02:56;;;;;;;0.40;0.40;;;27.00;99.90;;;;;;5064370;28;20041;-69
2023/06/26 10:05:22;;;;;;;0.88;0.88;;;26.90;99.90;;;;;;5067044;28;20497;-69
2023/06/26 10:07:48;;;;;;;0.85;0.65;;;26.90;99.90;;;;;;5064197;28;20053;-70
2023/06/26 10:10:16;;;;;;;1.27;1.10;;;27.20;99.90;;;;;;5063900;28;20424;-69
2023/06/26 10:12:47;;;;;;;0.38;0.38;;;27.20;99.90;;;;;;5063538;28;21724;-69
2023/06/26 10:15:16;;;;;;;2.33;1.30;;;27.40;99.90;;;;;;5060773;28;20090;-70
2023/06/26 10:17:43;;;;;;;0.63;0.63;;;27.60;99.80;;;;;;5065359;28;20056;-69
2023/06/26 10:20:09;;;;;;;0.40;0.40;;;27.80;99.90;;;;;;5062887;28;20044;-69
2023/06/26 10:22:44;;;;;;;0.30;0.30;;;27.90;99.90;;;;;;5063778;28;20036;-70
2023/06/26 10:25:11;;;;;;;0.40;0.40;;;27.90;99.90;;;;;;5062901;28;20031;-69
2023/06/26 10:27:40;;;;;;;0.40;0.40;;;27.80;99.40;;;;;;5061995;28;20133;-70
2023/06/26 10:30:16;;;;;;;0.50;0.50;;;27.90;99.80;;;;;;5062549;28;20622;-70
2023/06/26 10:32:42;;;;;;;0.40;0.40;;;28.00;99.10;;;;;;5064150;28;20405;-69
2023/06/26 10:35:09;;;;;;;0.40;0.40;;;28.30;99.10;;;;;;5062111;28;20616;-70
2023/06/26 10:37:46;;;;;;;1.20;0.95;;;28.60;99.10;;;;;;5062700;28;21918;-70
2023/06/26 10:40:13;;;;;;;0.65;0.65;;;29.00;98.80;;;;;;5063894;28;20044;-71
2023/06/26 10:42:40;;;;;;;1.00;0.60;;;29.10;98.20;;;;;;5061334;28;20059;-69
2023/06/26 10:45:11;;;;;;;0.50;0.50;;;29.40;97.70;;;;;;5059166;28;20123;-69
2023/06/26 10:47:38;;;;;;;3.42;0.80;;;29.20;97.60;;;;;;5062954;28;20060;-70
2023/06/26 10:50:22;;;;;;;0.55;0.55;;;29.20;97.30;;;;;;5063047;28;20052;-69
2023/06/26 10:53:24;;;;;;;0.70;0.70;;;29.00;97.60;;;;;;5059940;28;20044;-69
2023/06/26 10:56:01;;;;;;;0.75;0.75;;;28.80;96.90;;;;;;5058423;28;20052;-69
2023/06/26 10:58:40;;;;;;;0.55;0.55;;;28.60;97.10;;;;;;5060228;28;20071;-69
2023/06/26 11:01:12;;;;;;;0.55;0.55;;;28.30;96.00;;;;;;5061540;28;20040;-69
2023/06/26 11:03:40;;;;;;;0.65;0.65;;;28.20;96.70;;;;;;5063198;28;20573;-69
2023/06/26 11:06:13;;;;;;;0.70;0.70;;;28.20;97.10;;;;;;5068672;28;20497;-70
2023/06/26 11:08:49;;;;;;;0.73;0.73;;;28.20;97.50;;;;;;5059217;28;20422;-69
2023/06/26 11:11:15;;;;;;;1.98;1.05;;;28.50;97.10;;;;;;5063186;28;20097;-70
2023/06/26 11:13:42;;;;;;;0.57;0.57;;;28.40;96.40;;;;;;5046840;28;20057;-70
2023/06/26 11:16:08;;;;;;;0.32;0.32;;;28.60;96.20;;;;;;5064344;28;20044;-70
2023/06/26 11:18:34;;;;;;;2.35;0.77;;;28.70;96.50;;;;;;5061206;28;20106;-69
2023/06/26 11:21:09;;;;;;;0.50;0.50;;;28.50;95.30;;;;;;5061790;28;20044;-69
2023/06/26 11:23:37;;;;;;;1.25;1.05;;;28.50;96.00;;;;;;5060368;28;20044;-69
2023/06/26 11:26:23;;;;;;;2.47;0.85;;;28.60;95.90;;;;;;5062108;28;20078;-70
2023/06/26 11:28:52;;;;;;;0.60;0.60;;;28.70;95.90;;;;;;5062004;28;20217;-69
2023/06/26 11:31:24;;;;;;;0.60;0.60;;;28.70;95.90;;;;;;5059983;28;20041;-69
2023/06/26 11:33:50;;;;;;;0.40;0.40;;;28.70;96.00;;;;;;5057044;28;20140;-69
2023/06/26 11:36:15;;;;;;;0.50;0.50;;;28.70;94.40;;;;;;5061657;28;20425;-69
2023/06/26 11:38:41;;;;;;;0.47;0.47;;;28.90;95.30;;;;;;5053844;28;20056;-69
2023/06/26 11:41:08;;;;;;;0.45;0.45;;;29.00;95.10;;;;;;5058936;28;20073;-70
2023/06/26 11:43:34;;;;;;;0.50;0.50;;;29.10;94.30;;;;;;5057826;28;20041;-70
2023/06/26 11:46:00;;;;;;;0.47;0.47;;;29.00;92.40;;;;;;5064175;28;20091;-69
2023/06/26 11:48:26;;;;;;;0.43;0.43;;;29.10;92.40;;;;;;5061283;28;20067;-70
2023/06/26 11:50:52;;;;;;;0.82;0.82;;;29.30;93.70;;;;;;5061044;28;20045;-69
2023/06/26 11:53:17;;;;;;;1.33;1.27;;;29.00;94.30;;;;;;5059253;28;20410;-69
2023/06/26 11:55:43;;;;;;;0.30;0.30;;;29.10;94.20;;;;;;5063325;28;20040;-70
2023/06/26 11:58:08;;;;;;;0.60;0.60;;;29.10;94.30;;;;;;5061752;28;20080;-69
2023/06/26 12:00:34;;;;;;;1.45;0.85;;;29.10;93.60;;;;;;5063229;28;20483;-70
2023/06/26 12:03:03;;;;;;;0.80;0.80;;;29.20;92.40;;;;;;5059882;28;20066;-70
2023/06/26 12:05:29;;;;;;;0.65;0.65;;;29.40;93.60;;;;;;5038745;28;20528;-70
2023/06/26 12:07:57;;;;;;;0.30;0.30;;;29.30;92.40;;;;;;5066697;28;20068;-69
2023/06/26 12:10:23;;;;;;;0.60;0.60;;;29.40;92.90;;;;;;5066956;28;20049;-70
2023/06/26 12:12:48;;;;;;;0.40;0.40;;;29.60;93.00;;;;;;5062464;28;20436;-69
2023/06/26 12:15:15;;;;;;;0.40;0.40;;;29.50;93.30;;;;;;5064493;28;20041;-69
2023/06/26 12:17:42;;;;;;;0.30;0.30;;;29.60;93.50;;;;;;5066954;28;20052;-70
2023/06/26 12:20:19;;;;;;;0.32;0.32;;;29.70;93.00;;;;;;5069575;28;20052;-70
2023/06/26 12:22:47;;;;;;;0.30;0.30;;;29.90;93.10;;;;;;5064483;28;20781;-70
2023/06/26 12:25:13;;;;;;;0.30;0.30;;;30.00;93.20;;;;;;5072014;28;20436;-70
2023/06/26 12:27:38;;;;;;;0.45;0.45;;;29.90;93.00;;;;;;5060973;28;20040;-70
2023/06/26 12:30:05;;;;;;;0.55;0.55;;;29.90;92.90;;;;;;5064882;28;20032;-70
2023/06/26 12:32:31;;;;;;;0.40;0.40;;;29.70;92.50;;;;;;5044774;28;20107;-70
2023/06/26 12:34:58;;;;;;;0.60;0.60;;;29.60;90.70;;;;;;5073350;28;20052;-70
2023/06/26 12:37:23;;;;;;;0.50;0.40;;;29.40;91.10;;;;;;5064433;28;20048;-70
2023/06/26 12:39:53;;;;;;;0.50;0.50;;;29.20;91.70;;;;;;5071676;28;20041;-70
2023/06/26 12:42:21;;;;;;;0.75;0.75;;;29.10;91.80;;;;;;5062279;28;20033;-70
2023/06/26 12:44:47;;;;;;;0.90;0.90;;;29.20;92.10;;;;;;5064436;28;20502;-69
2023/06/26 12:47:15;;;;;;;0.50;0.50;;;29.10;92.00;;;;;;5072970;28;20052;-69
2023/06/26 12:49:43;;;;;;;0.45;0.45;;;29.20;92.30;;;;;;5059885;28;20056;-70